createdAt,value
2018-07-28T00:00:21.773Z,26.82
2018-07-28T00:01:21.793Z,26.76
2018-07-28T00:02:21.774Z,26.76
2018-07-28T00:03:21.776Z,26.77
2018-07-28T00:04:21.759Z,26.67
2018-07-28T00:05:21.784Z,26.69
2018-07-28T00:06:21.758Z,26.63
2018-07-28T00:07:21.765Z,26.66
2018-07-28T00:08:21.752Z,26.57
2018-07-28T00:09:21.730Z,26.60
2018-07-28T00:10:21.748Z,26.63
2018-07-28T00:11:21.738Z,26.58
2018-07-28T00:12:21.728Z,26.57
2018-07-28T00:13:21.721Z,26.57
2018-07-28T00:14:21.724Z,26.62
2018-07-28T00:15:21.707Z,26.58
2018-07-28T00:16:21.714Z,26.58
2018-07-28T00:17:21.714Z,26.57
2018-07-28T00:18:21.736Z,26.58
2018-07-28T00:19:21.691Z,26.60
2018-07-28T00:20:21.698Z,26.50
2018-07-28T00:21:21.728Z,26.48
2018-07-28T00:22:21.692Z,26.45
2018-07-28T00:23:21.685Z,26.45
2018-07-28T00:24:21.697Z,26.47
2018-07-28T00:25:21.697Z,26.47
2018-07-28T00:26:21.688Z,26.44
2018-07-28T00:27:21.683Z,26.47
2018-07-28T00:28:21.675Z,26.37
2018-07-28T00:29:21.873Z,26.45
2018-07-28T00:30:21.730Z,26.43
2018-07-28T00:31:21.658Z,26.47
2018-07-28T00:32:21.706Z,26.43
2018-07-28T00:33:21.653Z,26.43
2018-07-28T00:34:21.662Z,26.39
2018-07-28T00:35:21.648Z,26.36
2018-07-28T00:36:21.687Z,26.37
2018-07-28T00:37:21.642Z,26.33
2018-07-28T00:38:21.649Z,26.36
2018-07-28T00:39:21.629Z,26.37
2018-07-28T00:40:21.634Z,26.37
2018-07-28T00:41:21.650Z,26.33
2018-07-28T00:42:21.617Z,26.33
2018-07-28T00:43:21.623Z,26.29
2018-07-28T00:44:21.616Z,26.33
2018-07-28T00:45:21.615Z,26.26
2018-07-28T00:46:21.648Z,26.33
2018-07-28T00:47:21.602Z,26.26
2018-07-28T00:48:21.641Z,26.32
2018-07-28T00:49:21.604Z,26.30
2018-07-28T00:50:21.593Z,26.39
2018-07-28T00:51:21.589Z,26.30
2018-07-28T00:52:21.593Z,26.28
2018-07-28T00:53:21.589Z,26.33
2018-07-28T00:54:21.615Z,26.36
2018-07-28T00:55:21.583Z,26.30
2018-07-28T00:56:21.577Z,26.33
2018-07-28T00:57:21.579Z,26.33
2018-07-28T00:58:21.614Z,26.30
2018-07-28T00:59:21.560Z,26.25
2018-07-28T01:00:21.552Z,26.28
2018-07-28T01:01:21.549Z,26.28
2018-07-28T01:02:21.542Z,26.20
2018-07-28T01:03:21.557Z,26.23
2018-07-28T01:04:21.594Z,26.12
2018-07-28T01:05:21.544Z,26.10
2018-07-28T01:06:21.523Z,26.18
2018-07-28T01:07:21.532Z,26.29
2018-07-28T01:08:21.535Z,26.20
2018-07-28T01:09:21.521Z,26.18
2018-07-28T01:10:21.530Z,26.21
2018-07-28T01:11:21.504Z,26.17
2018-07-28T01:12:21.501Z,26.20
2018-07-28T01:13:21.508Z,26.18
2018-07-28T01:14:21.512Z,26.26
2018-07-28T01:15:21.779Z,26.25
2018-07-28T01:16:21.493Z,26.28
2018-07-28T01:17:21.487Z,26.30
2018-07-28T01:18:21.496Z,26.25
2018-07-28T01:19:21.494Z,26.33
2018-07-28T01:20:21.478Z,26.30
2018-07-28T01:21:21.796Z,26.35
2018-07-28T01:22:21.481Z,26.29
2018-07-28T01:23:21.469Z,26.35
2018-07-28T01:24:21.458Z,26.28
2018-07-28T01:25:21.471Z,26.26
2018-07-28T01:26:21.466Z,26.32
2018-07-28T01:27:21.468Z,26.33
2018-07-28T01:28:21.455Z,26.33
2018-07-28T01:29:21.698Z,26.39
2018-07-28T01:30:21.431Z,26.35
2018-07-28T01:31:21.440Z,26.30
2018-07-28T01:32:21.442Z,26.29
2018-07-28T01:33:21.426Z,26.25
2018-07-28T01:34:21.439Z,26.29
2018-07-28T01:35:21.430Z,26.25
2018-07-28T01:36:21.421Z,26.10
2018-07-28T01:37:21.429Z,26.18
2018-07-28T01:38:21.438Z,26.06
2018-07-28T01:39:21.415Z,26.10
2018-07-28T01:40:21.397Z,26.10
2018-07-28T01:41:21.400Z,26.13
2018-07-28T01:42:21.438Z,26.13
2018-07-28T01:43:21.389Z,26.13
2018-07-28T01:44:21.392Z,26.17
2018-07-28T01:45:21.399Z,26.12
2018-07-28T01:46:21.382Z,26.13
2018-07-28T01:47:21.766Z,26.10
2018-07-28T01:48:21.408Z,26.09
2018-07-28T01:49:21.411Z,25.98
2018-07-28T01:50:21.370Z,25.97
2018-07-28T01:51:21.362Z,26.10
2018-07-28T01:52:21.365Z,26.09
2018-07-28T01:53:21.394Z,26.02
2018-07-28T01:54:21.382Z,25.97
2018-07-28T01:55:21.347Z,26.12
2018-07-28T01:56:21.345Z,26.12
2018-07-28T01:57:21.331Z,26.06
2018-07-28T01:58:21.358Z,26.15
2018-07-28T01:59:21.398Z,26.12
2018-07-28T02:00:21.317Z,26.12
2018-07-28T02:01:21.338Z,26.17
2018-07-28T02:02:21.319Z,26.09
2018-07-28T02:03:21.317Z,26.09
2018-07-28T02:04:21.316Z,26.07
2018-07-28T02:05:21.344Z,26.17
2018-07-28T02:06:21.299Z,26.13
2018-07-28T02:07:21.320Z,26.02
2018-07-28T02:08:21.286Z,26.12
2018-07-28T02:09:21.293Z,26.07
2018-07-28T02:10:21.347Z,26.05
2018-07-28T02:11:21.297Z,25.95
2018-07-28T02:12:21.284Z,26.07
2018-07-28T02:13:21.268Z,25.83
2018-07-28T02:14:21.268Z,25.82
2018-07-28T02:15:21.269Z,25.90
2018-07-28T02:16:21.295Z,25.79
2018-07-28T02:17:21.261Z,25.75
2018-07-28T02:18:21.255Z,25.82
2018-07-28T02:19:21.259Z,25.79
2018-07-28T02:20:21.289Z,25.76
2018-07-28T02:21:21.244Z,25.77
2018-07-28T02:22:21.243Z,25.73
2018-07-28T02:23:21.247Z,25.70
2018-07-28T02:24:21.234Z,25.70
2018-07-28T02:25:21.224Z,25.62
2018-07-28T02:26:21.278Z,25.72
2018-07-28T02:27:21.222Z,25.70
2018-07-28T02:28:21.225Z,25.69
2018-07-28T02:29:21.216Z,25.67
2018-07-28T02:30:21.217Z,25.67
2018-07-28T02:31:21.217Z,25.62
2018-07-28T02:32:21.212Z,25.70
2018-07-28T02:33:21.205Z,25.64
2018-07-28T02:34:21.201Z,25.64
2018-07-28T02:35:21.202Z,25.67
2018-07-28T02:36:21.179Z,25.69
2018-07-28T02:37:21.224Z,25.61
2018-07-28T02:38:21.186Z,25.65
2018-07-28T02:39:21.173Z,25.60
2018-07-28T02:40:21.174Z,25.64
2018-07-28T02:41:21.166Z,25.52
2018-07-28T02:42:21.301Z,25.69
2018-07-28T02:43:21.171Z,25.67
2018-07-28T02:44:21.152Z,25.64
2018-07-28T02:45:21.158Z,25.57
2018-07-28T02:46:21.157Z,25.64
2018-07-28T02:47:21.140Z,25.64
2018-07-28T02:48:21.164Z,25.58
2018-07-28T02:49:21.143Z,25.65
2018-07-28T02:50:21.166Z,25.57
2018-07-28T02:51:21.151Z,25.58
2018-07-28T02:52:21.120Z,25.55
2018-07-28T02:53:21.147Z,25.57
2018-07-28T02:54:21.123Z,25.55
2018-07-28T02:55:21.111Z,25.54
2018-07-28T02:56:21.095Z,25.58
2018-07-28T02:57:21.095Z,25.58
2018-07-28T02:58:21.357Z,25.51
2018-07-28T02:59:21.098Z,25.46
2018-07-28T03:00:21.193Z,25.47
2018-07-28T03:01:21.081Z,25.43
2018-07-28T03:02:21.077Z,25.47
2018-07-28T03:03:21.078Z,25.47
2018-07-28T03:04:21.075Z,25.47
2018-07-28T03:05:21.060Z,25.46
2018-07-28T03:06:21.062Z,25.46
2018-07-28T03:07:21.060Z,25.40
2018-07-28T03:08:21.046Z,25.39
2018-07-28T03:09:21.079Z,25.39
2018-07-28T03:10:21.101Z,25.36
2018-07-28T03:11:21.038Z,25.40
2018-07-28T03:12:21.040Z,25.30
2018-07-28T03:13:21.027Z,25.33
2018-07-28T03:14:21.030Z,25.32
2018-07-28T03:15:21.027Z,25.24
2018-07-28T03:16:21.065Z,25.36
2018-07-28T03:17:21.023Z,25.27
2018-07-28T03:18:21.023Z,25.39
2018-07-28T03:19:21.016Z,25.24
2018-07-28T03:20:21.017Z,25.25
2018-07-28T03:21:21.029Z,25.27
2018-07-28T03:22:21.025Z,25.25
2018-07-28T03:23:20.994Z,25.17
2018-07-28T03:24:21.004Z,25.25
2018-07-28T03:25:20.974Z,25.33
2018-07-28T03:26:21.017Z,25.24
2018-07-28T03:27:20.985Z,25.24
2018-07-28T03:28:20.971Z,25.23
2018-07-28T03:29:20.963Z,25.15
2018-07-28T03:30:20.986Z,25.24
2018-07-28T03:31:21.324Z,25.15
2018-07-28T03:32:20.971Z,25.08
2018-07-28T03:33:20.938Z,25.13
2018-07-28T03:34:20.948Z,25.14
2018-07-28T03:35:20.945Z,25.15
2018-07-28T03:36:20.930Z,25.09
2018-07-28T03:37:20.959Z,25.18
2018-07-28T03:38:20.919Z,25.14
2018-07-28T03:39:20.917Z,25.15
2018-07-28T03:40:20.922Z,25.15
2018-07-28T03:41:20.956Z,25.09
2018-07-28T03:42:20.965Z,25.06
2018-07-28T03:43:20.913Z,25.10
2018-07-28T03:44:20.900Z,25.09
2018-07-28T03:45:20.906Z,25.09
2018-07-28T03:46:20.901Z,25.03
2018-07-28T03:47:20.881Z,25.13
2018-07-28T03:48:20.919Z,25.10
2018-07-28T03:49:20.925Z,25.03
2018-07-28T03:50:20.873Z,25.13
2018-07-28T03:51:20.861Z,25.18
2018-07-28T03:52:20.909Z,25.15
2018-07-28T03:53:20.851Z,25.02
2018-07-28T03:54:20.869Z,25.06
2018-07-28T03:55:20.847Z,24.99
2018-07-28T03:56:20.841Z,25.18
2018-07-28T03:57:20.834Z,25.10
2018-07-28T03:58:20.829Z,25.08
2018-07-28T03:59:20.871Z,25.14
2018-07-28T04:00:20.823Z,25.08
2018-07-28T04:01:20.828Z,25.17
2018-07-28T04:02:20.810Z,25.03
2018-07-28T04:03:20.805Z,25.13
2018-07-28T04:04:20.844Z,25.18
2018-07-28T04:05:20.801Z,25.17
2018-07-28T04:06:20.813Z,25.13
2018-07-28T04:07:20.801Z,25.10
2018-07-28T04:08:20.789Z,25.15
2018-07-28T04:09:20.843Z,25.18
2018-07-28T04:10:20.788Z,25.03
2018-07-28T04:11:20.787Z,25.13
2018-07-28T04:12:20.765Z,25.14
2018-07-28T04:13:20.771Z,25.14
2018-07-28T04:14:20.796Z,25.18
2018-07-28T04:15:20.795Z,25.09
2018-07-28T04:16:20.756Z,25.02
2018-07-28T04:17:20.753Z,25.09
2018-07-28T04:18:20.753Z,25.18
2018-07-28T04:19:20.803Z,25.13
2018-07-28T04:20:20.733Z,25.03
2018-07-28T04:21:20.732Z,25.06
2018-07-28T04:22:20.733Z,25.03
2018-07-28T04:23:20.731Z,25.05
2018-07-28T04:24:20.708Z,24.99
2018-07-28T04:25:20.743Z,25.03
2018-07-28T04:26:21.064Z,25.03
2018-07-28T04:27:20.705Z,24.98
2018-07-28T04:28:20.698Z,24.93
2018-07-28T04:29:20.706Z,24.99
2018-07-28T04:30:20.689Z,24.95
2018-07-28T04:31:20.689Z,24.96
2018-07-28T04:32:20.767Z,24.95
2018-07-28T04:33:20.685Z,24.90
2018-07-28T04:34:20.680Z,24.81
2018-07-28T04:35:20.661Z,24.84
2018-07-28T04:36:20.672Z,24.88
2018-07-28T04:37:20.669Z,25.00
2018-07-28T04:38:20.703Z,24.98
2018-07-28T04:39:20.656Z,24.91
2018-07-28T04:40:20.650Z,24.93
2018-07-28T04:41:20.640Z,24.90
2018-07-28T04:42:20.629Z,24.88
2018-07-28T04:43:20.636Z,24.90
2018-07-28T04:44:20.640Z,24.93
2018-07-28T04:45:20.614Z,24.93
2018-07-28T04:46:20.612Z,24.87
2018-07-28T04:47:20.630Z,24.88
2018-07-28T04:48:20.610Z,24.87
2018-07-28T04:49:20.636Z,24.90
2018-07-28T04:50:20.609Z,24.91
2018-07-28T04:51:20.595Z,24.80
2018-07-28T04:52:20.595Z,24.84
2018-07-28T04:53:20.606Z,24.81
2018-07-28T04:54:20.619Z,24.84
2018-07-28T04:55:20.654Z,24.85
2018-07-28T04:56:20.570Z,24.84
2018-07-28T04:57:20.574Z,24.81
2018-07-28T04:58:20.570Z,24.84
2018-07-28T04:59:20.567Z,24.87
2018-07-28T05:00:20.557Z,24.84
2018-07-28T05:01:20.557Z,24.78
2018-07-28T05:02:20.558Z,24.87
2018-07-28T05:03:20.534Z,24.83
2018-07-28T05:04:20.539Z,24.85
2018-07-28T05:05:20.524Z,24.85
2018-07-28T05:06:20.571Z,24.83
2018-07-28T05:07:20.585Z,24.77
2018-07-28T05:08:20.516Z,24.80
2018-07-28T05:09:20.508Z,24.88
2018-07-28T05:10:20.548Z,24.87
2018-07-28T05:11:20.508Z,24.85
2018-07-28T05:12:20.501Z,24.85
2018-07-28T05:13:20.508Z,24.77
2018-07-28T05:14:20.494Z,24.77
2018-07-28T05:15:20.521Z,24.69
2018-07-28T05:16:20.484Z,24.71
2018-07-28T05:17:20.479Z,24.83
2018-07-28T05:18:20.469Z,24.76
2018-07-28T05:19:20.465Z,24.71
2018-07-28T05:20:20.493Z,24.67
2018-07-28T05:21:20.461Z,24.71
2018-07-28T05:22:20.467Z,24.80
2018-07-28T05:23:20.451Z,24.67
2018-07-28T05:24:20.479Z,24.76
2018-07-28T05:25:20.438Z,24.69
2018-07-28T05:26:20.463Z,24.67
2018-07-28T05:27:20.445Z,24.68
2018-07-28T05:28:20.427Z,24.69
2018-07-28T05:29:20.426Z,24.65
2018-07-28T05:30:20.416Z,24.64
2018-07-28T05:31:20.787Z,24.71
2018-07-28T05:32:20.431Z,24.65
2018-07-28T05:33:20.402Z,24.67
2018-07-28T05:34:20.401Z,24.84
2018-07-28T05:35:20.400Z,24.83
2018-07-28T05:36:20.402Z,24.87
2018-07-28T05:37:20.417Z,24.80
2018-07-28T05:38:20.388Z,24.83
2018-07-28T05:39:20.374Z,24.91
2018-07-28T05:40:20.368Z,25.00
2018-07-28T05:41:20.365Z,24.98
2018-07-28T05:42:20.409Z,25.00
2018-07-28T05:43:20.367Z,24.98
2018-07-28T05:44:20.344Z,24.98
2018-07-28T05:45:20.356Z,25.00
2018-07-28T05:46:20.352Z,24.99
2018-07-28T05:47:20.388Z,25.03
2018-07-28T05:48:20.333Z,25.09
2018-07-28T05:49:20.330Z,25.10
2018-07-28T05:50:20.317Z,25.10
2018-07-28T05:51:20.321Z,25.25
2018-07-28T05:52:20.306Z,25.30
2018-07-28T05:53:20.333Z,25.33
2018-07-28T05:54:20.348Z,25.30
2018-07-28T05:55:20.308Z,25.36
2018-07-28T05:56:20.319Z,25.32
2018-07-28T05:57:20.300Z,25.45
2018-07-28T05:58:20.350Z,25.38
2018-07-28T05:59:20.288Z,25.39
2018-07-28T06:00:20.274Z,25.47
2018-07-28T06:01:20.272Z,25.50
2018-07-28T06:02:20.347Z,25.40
2018-07-28T06:03:20.284Z,25.30
2018-07-28T06:04:20.317Z,25.33
2018-07-28T06:05:20.273Z,25.35
2018-07-28T06:06:20.260Z,25.25
2018-07-28T06:07:20.258Z,25.35
2018-07-28T06:08:20.252Z,25.32
2018-07-28T06:09:20.250Z,25.35
2018-07-28T06:10:20.251Z,25.33
2018-07-28T06:11:20.271Z,25.32
2018-07-28T06:12:20.236Z,25.39
2018-07-28T06:13:20.232Z,25.38
2018-07-28T06:14:20.421Z,25.32
2018-07-28T06:15:20.225Z,25.33
2018-07-28T06:16:20.221Z,25.36
2018-07-28T06:17:20.226Z,25.35
2018-07-28T06:18:20.212Z,25.35
2018-07-28T06:19:20.210Z,25.33
2018-07-28T06:20:20.276Z,25.40
2018-07-28T06:21:20.201Z,25.45
2018-07-28T06:22:20.195Z,25.45
2018-07-28T06:23:20.188Z,25.46
2018-07-28T06:24:20.178Z,25.45
2018-07-28T06:25:20.210Z,25.42
2018-07-28T06:26:20.172Z,25.40
2018-07-28T06:27:20.175Z,25.42
2018-07-28T06:28:20.173Z,25.46
2018-07-28T06:29:20.199Z,25.50
2018-07-28T06:30:20.439Z,25.52
2018-07-28T06:31:20.154Z,25.51
2018-07-28T06:32:20.150Z,25.55
2018-07-28T06:33:20.158Z,25.64
2018-07-28T06:34:20.159Z,25.61
2018-07-28T06:35:20.146Z,25.54
2018-07-28T06:36:20.163Z,25.54
2018-07-28T06:37:20.140Z,25.61
2018-07-28T06:38:20.119Z,25.75
2018-07-28T06:39:20.194Z,25.77
2018-07-28T06:40:20.154Z,25.76
2018-07-28T06:41:20.183Z,25.87
2018-07-28T06:42:20.106Z,25.87
2018-07-28T06:43:20.109Z,25.90
2018-07-28T06:44:20.105Z,25.83
2018-07-28T06:45:20.118Z,25.98
2018-07-28T06:46:20.090Z,26.06
2018-07-28T06:47:20.190Z,26.12
2018-07-28T06:48:20.097Z,26.15
2018-07-28T06:49:20.074Z,26.10
2018-07-28T06:50:20.081Z,26.10
2018-07-28T06:51:20.075Z,26.23
2018-07-28T06:52:20.160Z,26.28
2018-07-28T06:53:20.102Z,26.28
2018-07-28T06:54:20.061Z,26.36
2018-07-28T06:55:20.061Z,26.36
2018-07-28T06:56:20.054Z,26.26
2018-07-28T06:57:20.069Z,26.32
2018-07-28T06:58:20.053Z,26.26
2018-07-28T06:59:20.088Z,26.36
2018-07-28T07:00:20.044Z,26.40
2018-07-28T07:01:20.051Z,26.44
2018-07-28T07:02:20.036Z,26.44
2018-07-28T07:03:20.068Z,26.48
2018-07-28T07:04:20.026Z,26.48
2018-07-28T07:05:20.071Z,26.55
2018-07-28T07:06:20.020Z,26.60
2018-07-28T07:07:20.015Z,26.62
2018-07-28T07:08:20.014Z,26.55
2018-07-28T07:09:20.105Z,26.67
2018-07-28T07:10:20.008Z,26.72
2018-07-28T07:11:20.038Z,26.75
2018-07-28T07:12:20.000Z,26.85
2018-07-28T07:13:19.994Z,26.87
2018-07-28T07:14:19.986Z,26.91
2018-07-28T07:15:20.016Z,26.92
2018-07-28T07:16:20.021Z,27.02
2018-07-28T07:17:19.983Z,27.06
2018-07-28T07:18:19.979Z,27.10
2018-07-28T07:19:19.980Z,27.09
2018-07-28T07:20:19.976Z,27.13
2018-07-28T07:21:19.992Z,27.07
2018-07-28T07:22:19.977Z,27.12
2018-07-28T07:23:19.965Z,27.10
2018-07-28T07:24:19.964Z,27.10
2018-07-28T07:25:19.954Z,27.14
2018-07-28T07:26:20.003Z,27.14
2018-07-28T07:27:19.962Z,27.22
2018-07-28T07:28:19.951Z,27.29
2018-07-28T07:29:19.942Z,27.18
2018-07-28T07:30:19.979Z,27.22
2018-07-28T07:31:20.079Z,27.25
2018-07-28T07:32:19.953Z,27.29
2018-07-28T07:33:20.063Z,27.31
2018-07-28T07:34:20.041Z,27.40
2018-07-28T07:35:19.915Z,27.40
2018-07-28T07:36:20.127Z,27.36
2018-07-28T07:37:20.109Z,27.37
2018-07-28T07:38:19.917Z,27.37
2018-07-28T07:39:20.502Z,27.29
2018-07-28T07:40:19.981Z,27.37
2018-07-28T07:41:19.907Z,27.46
2018-07-28T07:42:19.958Z,27.44
2018-07-28T07:43:19.902Z,27.41
2018-07-28T07:44:19.926Z,27.54
2018-07-28T07:45:19.896Z,27.46
2018-07-28T07:46:19.887Z,27.59
2018-07-28T07:47:19.962Z,27.55
2018-07-28T07:48:19.952Z,27.60
2018-07-28T07:49:19.888Z,27.62
2018-07-28T07:50:19.889Z,27.67
2018-07-28T07:51:19.875Z,27.63
2018-07-28T07:52:19.882Z,27.66
2018-07-28T07:53:19.881Z,27.65
2018-07-28T07:54:19.935Z,27.75
2018-07-28T07:55:19.976Z,27.77
2018-07-28T07:56:19.862Z,27.70
2018-07-28T07:57:19.905Z,27.77
2018-07-28T07:58:19.852Z,27.87
2018-07-28T07:59:19.860Z,27.82
2018-07-28T08:00:19.860Z,27.90
2018-07-28T08:01:19.854Z,27.92
2018-07-28T08:02:19.862Z,27.90
2018-07-28T08:03:19.882Z,27.93
2018-07-28T08:04:19.900Z,27.99
2018-07-28T08:05:19.844Z,27.97
2018-07-28T08:06:19.937Z,28.04
2018-07-28T08:07:19.872Z,28.04
2018-07-28T08:08:19.836Z,28.06
2018-07-28T08:09:19.935Z,28.04
2018-07-28T08:10:19.850Z,28.02
2018-07-28T08:11:19.831Z,28.04
2018-07-28T08:12:19.879Z,28.19
2018-07-28T08:13:19.813Z,28.11
2018-07-28T08:14:19.829Z,28.15
2018-07-28T08:15:19.832Z,28.27
2018-07-28T08:16:19.804Z,28.17
2018-07-28T08:17:19.816Z,28.19
2018-07-28T08:18:19.876Z,28.17
2018-07-28T08:19:19.810Z,28.27
2018-07-28T08:20:19.810Z,28.24
2018-07-28T08:21:19.906Z,28.19
2018-07-28T08:22:19.796Z,28.27
2018-07-28T08:23:19.800Z,28.31
2018-07-28T08:24:19.856Z,28.30
2018-07-28T08:25:19.862Z,28.33
2018-07-28T08:26:20.485Z,28.25
2018-07-28T08:27:21.452Z,28.34
2018-07-28T08:30:14.648Z,28.44
2018-07-28T08:31:04.148Z,28.48
2018-07-28T08:32:04.968Z,28.55
2018-07-28T08:33:03.309Z,28.49
2018-07-28T08:34:03.188Z,28.52
2018-07-28T08:35:04.802Z,28.59
2018-07-28T08:36:04.969Z,28.52
2018-07-28T08:37:03.160Z,28.56
2018-07-28T08:38:03.155Z,28.66
2018-07-28T08:39:03.161Z,28.61
2018-07-28T08:40:03.228Z,28.61
2018-07-28T08:41:03.147Z,28.73
2018-07-28T08:42:03.208Z,28.81
2018-07-28T08:43:03.169Z,28.76
2018-07-28T08:44:03.140Z,28.78
2018-07-28T08:45:03.144Z,28.85
2018-07-28T08:46:03.148Z,28.95
2018-07-28T08:47:03.141Z,28.83
2018-07-28T08:48:03.170Z,28.95
2018-07-28T08:49:03.269Z,28.98
2018-07-28T08:50:03.169Z,28.96
2018-07-28T08:51:03.138Z,28.95
2018-07-28T08:52:03.143Z,29.08
2018-07-28T08:53:03.164Z,29.12
2018-07-28T08:54:03.127Z,29.14
2018-07-28T08:55:03.125Z,29.37
2018-07-28T08:56:03.132Z,29.67
2018-07-28T08:57:03.139Z,29.87
2018-07-28T08:58:03.229Z,30.24
2018-07-28T09:01:21.958Z,30.84
2018-07-28T09:02:20.934Z,30.88
2018-07-28T09:03:21.193Z,31.16
2018-07-28T09:04:20.810Z,31.46
2018-07-28T09:05:20.997Z,31.46
2018-07-28T09:06:20.851Z,31.51
2018-07-28T09:07:20.852Z,31.34
2018-07-28T09:08:20.827Z,31.51
2018-07-28T09:09:20.835Z,31.51
2018-07-28T09:10:20.839Z,31.46
2018-07-28T09:11:20.831Z,31.53
2018-07-28T09:12:20.808Z,31.48
2018-07-28T09:13:20.816Z,31.26
2018-07-28T09:14:20.821Z,31.13
2018-07-28T09:15:21.465Z,30.95
2018-07-28T09:16:20.865Z,30.97
2018-07-28T09:17:20.816Z,30.72
2018-07-28T09:18:20.825Z,30.60
2018-07-28T09:19:20.960Z,30.60
2018-07-28T09:20:21.048Z,30.39
2018-07-28T09:21:20.819Z,30.42
2018-07-28T09:22:20.813Z,30.31
2018-07-28T09:23:20.842Z,30.23
2018-07-28T09:24:20.806Z,30.11
2018-07-28T09:25:20.814Z,30.11
2018-07-28T09:26:21.560Z,29.97
2018-07-28T09:27:20.809Z,29.92
2018-07-28T09:28:20.806Z,29.83
2018-07-28T09:29:20.816Z,29.78
2018-07-28T09:30:20.803Z,29.65
2018-07-28T09:31:20.816Z,29.64
2018-07-28T09:32:20.806Z,29.60
2018-07-28T09:33:20.845Z,29.65
2018-07-28T09:34:20.834Z,29.55
2018-07-28T09:35:24.455Z,29.45
2018-07-28T09:36:21.510Z,29.34
2018-07-28T09:37:20.822Z,29.27
2018-07-28T09:38:20.838Z,29.26
2018-07-28T09:39:20.867Z,29.12
2018-07-28T09:40:20.796Z,29.23
2018-07-28T09:41:20.801Z,29.14
2018-07-28T09:42:20.795Z,28.96
2018-07-28T09:43:20.809Z,28.98
2018-07-28T09:44:20.787Z,28.92
2018-07-28T09:45:20.830Z,28.98
2018-07-28T09:46:20.805Z,29.00
2018-07-28T09:47:20.789Z,28.92
2018-07-28T09:48:20.785Z,28.77
2018-07-28T09:49:20.828Z,28.71
2018-07-28T09:50:20.791Z,28.62
2018-07-28T09:51:20.782Z,28.58
2018-07-28T09:52:20.774Z,28.56
2018-07-28T09:53:20.788Z,28.58
2018-07-28T09:54:20.818Z,28.51
2018-07-28T09:55:20.782Z,28.59
2018-07-28T09:56:20.841Z,28.51
2018-07-28T09:57:20.786Z,28.49
2018-07-28T09:58:20.767Z,28.56
2018-07-28T09:59:20.811Z,28.58
2018-07-28T10:00:20.774Z,28.52
2018-07-28T10:01:20.806Z,28.56
2018-07-28T10:02:20.755Z,28.55
2018-07-28T10:03:20.764Z,28.58
2018-07-28T10:04:20.771Z,28.54
2018-07-28T10:05:20.759Z,28.54
2018-07-28T10:06:20.755Z,28.67
2018-07-28T10:07:20.933Z,28.81
2018-07-28T10:08:20.752Z,29.00
2018-07-28T10:09:21.046Z,29.43
2018-07-28T10:10:20.742Z,29.79
2018-07-28T10:11:20.779Z,30.10
2018-07-28T10:12:20.751Z,30.43
2018-07-28T10:13:20.846Z,30.37
2018-07-28T10:14:20.754Z,30.58
2018-07-28T10:15:20.818Z,30.65
2018-07-28T10:16:21.036Z,30.91
2018-07-28T10:17:20.756Z,30.84
2018-07-28T10:18:21.089Z,30.86
2018-07-28T10:19:20.740Z,30.89
2018-07-28T10:20:20.744Z,30.86
2018-07-28T10:21:20.771Z,30.89
2018-07-28T10:22:20.736Z,30.88
2018-07-28T10:23:20.924Z,30.79
2018-07-28T10:24:20.772Z,30.70
2018-07-28T10:25:20.748Z,30.55
2018-07-28T10:26:20.739Z,30.45
2018-07-28T10:27:20.756Z,30.26
2018-07-28T10:28:20.744Z,30.10
2018-07-28T10:29:20.739Z,29.97
2018-07-28T10:30:20.749Z,29.87
2018-07-28T10:31:20.759Z,29.70
2018-07-28T10:32:20.751Z,29.79
2018-07-28T10:33:20.747Z,29.76
2018-07-28T10:34:20.752Z,29.73
2018-07-28T10:35:20.757Z,29.71
2018-07-28T10:36:20.793Z,29.73
2018-07-28T10:37:20.740Z,29.58
2018-07-28T10:38:20.757Z,29.61
2018-07-28T10:39:20.785Z,29.43
2018-07-28T10:40:20.758Z,29.26
2018-07-28T10:41:20.741Z,29.09
2018-07-28T10:42:20.790Z,28.98
2018-07-28T10:43:21.057Z,28.90
2018-07-28T10:44:20.763Z,28.85
2018-07-28T10:45:20.748Z,28.77
2018-07-28T10:46:20.759Z,28.67
2018-07-28T10:47:20.765Z,28.55
2018-07-28T10:48:20.797Z,28.56
2018-07-28T10:49:21.938Z,28.51
2018-07-28T10:50:22.735Z,28.40
2018-07-28T10:51:21.044Z,28.39
2018-07-28T10:52:20.756Z,28.37
2018-07-28T10:53:20.752Z,28.37
2018-07-28T10:54:20.735Z,28.25
2018-07-28T10:55:20.981Z,28.22
2018-07-28T10:56:20.736Z,28.18
2018-07-28T10:57:20.765Z,28.21
2018-07-28T10:58:20.720Z,28.06
2018-07-28T10:59:20.715Z,27.97
2018-07-28T11:00:20.747Z,28.00
2018-07-28T11:01:20.751Z,28.03
2018-07-28T11:02:20.709Z,27.93
2018-07-28T11:03:20.731Z,28.07
2018-07-28T11:04:20.748Z,28.06
2018-07-28T11:05:20.717Z,28.02
2018-07-28T11:06:20.709Z,28.06
2018-07-28T11:07:20.729Z,28.06
2018-07-28T11:08:22.497Z,27.99
2018-07-28T11:09:20.709Z,28.03
2018-07-28T11:10:20.694Z,28.00
2018-07-28T11:11:20.746Z,28.03
2018-07-28T11:12:20.697Z,27.96
2018-07-28T11:13:20.741Z,28.00
2018-07-28T11:14:22.544Z,28.02
2018-07-28T11:15:21.800Z,27.99
2018-07-28T11:16:20.875Z,28.04
2018-07-28T11:17:25.487Z,27.88
2018-07-28T11:18:20.677Z,27.97
2018-07-28T11:19:25.531Z,27.99
2018-07-28T11:20:21.498Z,27.99
2018-07-28T11:21:21.856Z,27.93
2018-07-28T11:24:27.462Z,27.87
2018-07-28T11:25:24.413Z,27.92
2018-07-28T11:26:24.565Z,27.94
2018-07-28T11:27:25.417Z,27.87
2018-07-28T11:28:28.311Z,27.85
2018-07-28T11:29:25.458Z,27.78
2018-07-28T11:30:24.890Z,27.77
2018-07-28T11:38:54.794Z,27.65
2018-07-28T11:39:54.742Z,27.62
2018-07-28T11:40:55.092Z,27.57
2018-07-28T11:41:54.783Z,27.57
2018-07-28T11:42:54.735Z,27.51
2018-07-28T11:43:54.798Z,27.54
2018-07-28T11:44:54.904Z,27.54
2018-07-28T11:45:54.815Z,27.60
2018-07-28T11:46:54.728Z,27.60
2018-07-28T11:47:54.757Z,27.49
2018-07-28T11:48:57.282Z,27.59
2018-07-28T11:49:54.770Z,27.46
2018-07-28T11:50:54.752Z,27.54
2018-07-28T11:51:54.716Z,27.41
2018-07-28T11:52:54.830Z,27.32
2018-07-28T11:53:54.734Z,27.36
2018-07-28T11:54:58.279Z,27.41
2018-07-28T11:55:55.054Z,27.46
2018-07-28T11:56:54.710Z,27.43
2018-07-28T11:57:54.695Z,27.46
2018-07-28T11:58:54.883Z,27.41
2018-07-28T11:59:54.687Z,27.40
2018-07-28T12:00:54.689Z,27.39
2018-07-28T12:01:54.691Z,27.49
2018-07-28T12:02:54.691Z,27.46
2018-07-28T12:03:54.676Z,27.39
2018-07-28T12:04:54.692Z,27.39
2018-07-28T12:05:54.674Z,27.41
2018-07-28T12:06:54.676Z,27.39
2018-07-28T12:07:54.655Z,27.32
2018-07-28T12:08:54.702Z,27.43
2018-07-28T12:09:55.308Z,27.28
2018-07-28T12:10:54.652Z,27.32
2018-07-28T12:11:54.699Z,27.34
2018-07-28T12:12:54.656Z,27.34
2018-07-28T12:13:54.682Z,27.28
2018-07-28T12:14:54.814Z,27.21
2018-07-28T12:15:54.638Z,27.17
2018-07-28T12:16:55.308Z,27.13
2018-07-28T12:17:54.633Z,27.06
2018-07-28T12:18:54.663Z,27.00
2018-07-28T12:19:54.621Z,27.04
2018-07-28T12:20:54.707Z,26.97
2018-07-28T12:21:54.625Z,26.95
2018-07-28T12:22:54.625Z,26.89
2018-07-28T12:23:54.694Z,27.00
2018-07-28T12:24:54.612Z,26.87
2018-07-28T12:25:54.633Z,26.85
2018-07-28T12:26:54.621Z,26.85
2018-07-28T12:27:54.647Z,26.81
2018-07-28T12:28:54.615Z,26.80
2018-07-28T12:29:54.605Z,26.62
2018-07-28T12:30:54.598Z,26.67
2018-07-28T12:31:54.779Z,26.54
2018-07-28T12:32:54.584Z,26.58
2018-07-28T12:33:54.585Z,26.66
2018-07-28T12:34:54.601Z,26.66
2018-07-28T12:35:54.584Z,26.77
2018-07-28T12:36:54.588Z,26.77
2018-07-28T12:37:54.635Z,26.80
2018-07-28T12:38:54.563Z,26.89
2018-07-28T12:39:54.552Z,26.95
2018-07-28T12:40:55.476Z,27.02
2018-07-28T12:41:54.555Z,27.06
2018-07-28T12:42:54.558Z,27.13
2018-07-28T12:43:54.565Z,27.24
2018-07-28T12:44:56.308Z,27.28
2018-07-28T12:45:54.546Z,27.31
2018-07-28T12:46:54.543Z,27.29
2018-07-28T12:47:54.531Z,27.43
2018-07-28T12:48:54.563Z,27.31
2018-07-28T12:49:54.532Z,27.36
2018-07-28T12:50:54.528Z,27.62
2018-07-28T12:51:54.652Z,27.55
2018-07-28T12:52:54.565Z,27.51
2018-07-28T12:53:54.515Z,27.46
2018-07-28T12:54:54.856Z,27.49
2018-07-28T12:55:54.524Z,27.49
2018-07-28T12:57:02.871Z,27.37
2018-07-28T12:57:55.096Z,27.47
2018-07-28T12:59:01.759Z,27.32
2018-07-28T12:59:54.499Z,27.34
2018-07-28T13:00:55.726Z,27.36
2018-07-28T13:01:54.485Z,27.41
2018-07-28T13:02:56.327Z,27.37
2018-07-28T13:04:00.954Z,27.34
2018-07-28T13:04:54.517Z,27.36
2018-07-28T13:05:55.350Z,27.39